Providence Village, Texas
Current Conditions -  °F | °C
As of 3:53 AM on Thursday 18 Dec 2014 (Local Time) from KDTO Reporting Station
Haze Haze  
Wind Chill: 38°   Ceiling: 300
Heat Index: 41°   Visibility: 2mi
Dew Point: 41°   Wind: 5mph
Humidity: 100%   Direction: 130°SE
Pressure: 30.11"   Gusts: NA
Location:  33.2863°N, 96.9901°W
Report Text: KDTO 180953Z AUTO 13004KT 2SM BR OVC003 05/05 A3011 RMK AO2 SLP198 T00500050
Loading
Personal Weather Stations






























Interactive Weather Map New forecast layout! Learn more

10-Day Weather Forecast

Advertisements
Track Severe Weather on mobile